Time;durP1;ratioP1;P1;durP2;ratioP2;P2;SDS_P1;SDS_P2;PMS_P1;PMS_P2;Temp;Humidity;BMP_temperature;BMP_pressure;BME280_temperature;BME280_humidity;BME280_pressure;Samples;Min_cycle;Max_cycle;Signal;HPM_P1;HPM_P2
2023/12/17 00:00:52;;;;;;;2.20;2.00;;;19.40;44.20;;;;;;5074048;27;20440;-67
2023/12/17 00:03:18;;;;;;;3.07;2.87;;;19.30;44.10;;;;;;5076418;28;20259;-67
2023/12/17 00:05:43;;;;;;;3.23;3.03;;;19.30;44.10;;;;;;5078511;28;20242;-68
2023/12/17 00:08:09;;;;;;;3.50;1.90;;;19.30;44.10;;;;;;5078484;28;20217;-67
2023/12/17 00:10:34;;;;;;;2.90;2.70;;;19.30;44.10;;;;;;5059384;28;20344;-67
2023/12/17 00:13:00;;;;;;;1.93;1.83;;;19.30;44.00;;;;;;5079885;28;20232;-67
2023/12/17 00:15:26;;;;;;;3.10;2.50;;;19.30;44.10;;;;;;5063906;27;20220;-67
2023/12/17 00:17:51;;;;;;;2.67;2.47;;;19.30;44.00;;;;;;5072808;27;20682;-67
2023/12/17 00:20:17;;;;;;;2.93;2.50;;;19.30;44.10;;;;;;5085270;28;20228;-67
2023/12/17 00:22:42;;;;;;;2.10;2.00;;;19.30;44.10;;;;;;5079065;28;20224;-67
2023/12/17 00:25:08;;;;;;;2.50;2.33;;;19.30;44.00;;;;;;5085717;28;20217;-67
2023/12/17 00:27:34;;;;;;;2.13;2.03;;;19.30;44.10;;;;;;5078865;27;20228;-67
2023/12/17 00:29:59;;;;;;;2.60;2.40;;;19.30;44.10;;;;;;5075055;28;20227;-67
2023/12/17 00:32:25;;;;;;;2.30;2.13;;;19.30;44.00;;;;;;5082350;27;20266;-67
2023/12/17 00:34:50;;;;;;;2.57;2.20;;;19.30;44.10;;;;;;5084867;27;20232;-67
2023/12/17 00:37:15;;;;;;;2.10;1.90;;;19.30;44.10;;;;;;5082682;28;20281;-68
2023/12/17 00:39:41;;;;;;;2.27;2.17;;;19.30;44.10;;;;;;5079962;28;20990;-67
2023/12/17 00:42:07;;;;;;;3.10;2.90;;;19.30;44.10;;;;;;5083304;28;20785;-67
2023/12/17 00:44:32;;;;;;;2.17;2.07;;;19.30;44.00;;;;;;5068134;28;20239;-67
2023/12/17 00:46:59;;;;;;;2.40;2.30;;;19.30;44.10;;;;;;5080244;28;20227;-67
2023/12/17 00:49:25;;;;;;;2.30;2.13;;;19.30;44.10;;;;;;5083637;27;20224;-67
2023/12/17 00:51:50;;;;;;;2.60;2.40;;;19.30;44.10;;;;;;5083082;28;20463;-67
2023/12/17 00:54:16;;;;;;;2.63;2.00;;;19.30;44.10;;;;;;5085508;28;20258;-67
2023/12/17 00:56:41;;;;;;;2.37;2.10;;;19.30;44.10;;;;;;5073492;27;20618;-67
2023/12/17 00:59:07;;;;;;;2.63;2.07;;;19.30;44.10;;;;;;5093677;27;20252;-67
2023/12/17 01:01:32;;;;;;;2.20;2.00;;;19.30;44.10;;;;;;5083821;28;20225;-67
2023/12/17 01:03:58;;;;;;;2.17;2.07;;;19.30;44.80;;;;;;5074600;28;20238;-67
2023/12/17 01:06:23;;;;;;;2.27;2.17;;;19.30;44.10;;;;;;5080424;27;20345;-67
2023/12/17 01:08:49;;;;;;;2.00;1.80;;;19.30;44.10;;;;;;5081168;28;20217;-67
2023/12/17 01:11:14;;;;;;;2.40;2.30;;;19.30;44.10;;;;;;5080119;27;20297;-67
2023/12/17 01:13:40;;;;;;;2.47;2.27;;;19.30;44.10;;;;;;5082376;28;20228;-67
2023/12/17 01:16:06;;;;;;;2.47;2.30;;;19.30;44.00;;;;;;5077462;28;20547;-67
2023/12/17 01:18:32;;;;;;;2.73;2.53;;;19.30;44.10;;;;;;5063737;28;20249;-67
2023/12/17 01:20:59;;;;;;;2.00;1.90;;;19.30;44.10;;;;;;5076100;28;20552;-67
2023/12/17 01:23:25;;;;;;;2.40;2.30;;;19.30;44.10;;;;;;5077700;28;20235;-67
2023/12/17 01:25:51;;;;;;;2.20;2.10;;;19.30;44.10;;;;;;5082025;27;20434;-67
2023/12/17 01:28:17;;;;;;;2.20;2.00;;;19.30;44.10;;;;;;5080510;28;20252;-67
2023/12/17 01:30:42;;;;;;;2.60;2.50;;;19.30;44.10;;;;;;5077695;27;20298;-67
2023/12/17 01:33:08;;;;;;;2.40;2.30;;;19.30;44.10;;;;;;5089862;27;20475;-67
2023/12/17 01:35:33;;;;;;;2.13;2.00;;;19.30;44.10;;;;;;5084388;28;20662;-67
2023/12/17 01:37:59;;;;;;;2.67;2.50;;;19.30;44.10;;;;;;5080269;28;20932;-67
2023/12/17 01:40:25;;;;;;;2.47;2.27;;;19.30;44.10;;;;;;5084304;28;20239;-67
2023/12/17 01:42:53;;;;;;;2.30;2.20;;;19.30;44.10;;;;;;5074641;28;20252;-67
2023/12/17 01:45:19;;;;;;;2.20;2.10;;;19.30;44.10;;;;;;5061490;28;20325;-67
2023/12/17 01:47:45;;;;;;;2.40;2.20;;;19.30;44.10;;;;;;5061621;28;20470;-67
2023/12/17 01:50:10;;;;;;;2.20;2.10;;;19.30;44.00;;;;;;5063373;28;20497;-67
2023/12/17 01:52:38;;;;;;;2.10;2.00;;;19.30;44.10;;;;;;5075458;28;20288;-67
2023/12/17 01:55:04;;;;;;;2.73;2.53;;;19.30;44.10;;;;;;5082739;28;20228;-67
2023/12/17 01:57:30;;;;;;;2.43;2.23;;;19.30;44.10;;;;;;5074745;27;20446;-67
2023/12/17 01:59:56;;;;;;;2.17;1.97;;;19.30;44.10;;;;;;5079977;28;20470;-67
2023/12/17 02:02:22;;;;;;;2.10;2.00;;;19.30;44.10;;;;;;5078400;27;20466;-67
2023/12/17 02:04:48;;;;;;;2.30;2.10;;;19.30;44.10;;;;;;5080804;28;20566;-67
2023/12/17 02:07:13;;;;;;;2.53;2.33;;;19.30;44.10;;;;;;5075528;27;20240;-67
2023/12/17 02:09:39;;;;;;;2.50;2.30;;;19.30;44.10;;;;;;5082389;27;20554;-67
2023/12/17 02:12:05;;;;;;;2.07;1.97;;;19.30;44.10;;;;;;5079227;28;20231;-67
2023/12/17 02:14:30;;;;;;;2.00;1.90;;;19.30;44.10;;;;;;5079822;28;20212;-67
2023/12/17 02:16:56;;;;;;;2.27;2.17;;;19.30;44.10;;;;;;5076721;28;20231;-67
2023/12/17 02:19:21;;;;;;;2.10;2.00;;;19.30;44.10;;;;;;5078377;28;20235;-67
2023/12/17 02:21:47;;;;;;;2.77;2.17;;;19.30;44.10;;;;;;5079325;28;20216;-67
2023/12/17 02:24:12;;;;;;;2.17;2.00;;;19.30;44.10;;;;;;5079185;28;20239;-67
2023/12/17 02:26:42;;;;;;;2.20;2.00;;;19.30;44.10;;;;;;5080190;28;21646;-67
2023/12/17 02:29:08;;;;;;;1.83;1.73;;;19.30;44.10;;;;;;5067961;28;20220;-67
2023/12/17 02:31:33;;;;;;;2.00;1.90;;;19.30;44.10;;;;;;5080538;27;20451;-67
2023/12/17 02:33:59;;;;;;;2.07;1.97;;;19.30;44.10;;;;;;5082608;28;20224;-67
2023/12/17 02:36:24;;;;;;;1.90;1.80;;;19.30;44.10;;;;;;5080836;28;20220;-67
2023/12/17 02:38:50;;;;;;;1.90;1.80;;;19.30;44.00;;;;;;5080109;28;20743;-67
2023/12/17 02:41:15;;;;;;;1.97;1.87;;;19.30;44.10;;;;;;5079302;28;20816;-67
2023/12/17 02:43:41;;;;;;;2.00;1.90;;;19.30;44.10;;;;;;5081396;28;20231;-67
2023/12/17 02:46:06;;;;;;;3.87;2.00;;;19.30;44.10;;;;;;5074851;28;20227;-67
2023/12/17 02:48:33;;;;;;;2.30;2.10;;;19.30;44.10;;;;;;5079996;28;20223;-67
2023/12/17 02:50:58;;;;;;;2.27;1.90;;;19.30;44.10;;;;;;5080286;28;20221;-67
2023/12/17 02:53:24;;;;;;;2.20;2.10;;;19.30;44.00;;;;;;5080862;28;20456;-67
2023/12/17 02:55:49;;;;;;;1.90;1.80;;;19.30;44.10;;;;;;5081249;28;20669;-67
2023/12/17 02:58:15;;;;;;;2.20;2.00;;;19.30;44.10;;;;;;5081911;28;20216;-67
2023/12/17 03:00:41;;;;;;;2.20;2.00;;;19.30;44.10;;;;;;5075770;28;20224;-67
2023/12/17 03:03:07;;;;;;;2.03;1.93;;;19.30;44.10;;;;;;5067510;28;20278;-67
2023/12/17 03:05:32;;;;;;;1.90;1.80;;;19.30;44.10;;;;;;5082760;28;20630;-67
2023/12/17 03:07:58;;;;;;;1.93;1.83;;;19.30;44.10;;;;;;5085623;27;20244;-66
2023/12/17 03:10:23;;;;;;;1.93;1.83;;;19.30;44.10;;;;;;5084199;27;21742;-67
2023/12/17 03:12:49;;;;;;;1.90;1.67;;;19.30;44.10;;;;;;5077105;28;20834;-67
2023/12/17 03:15:14;;;;;;;1.90;1.80;;;19.30;44.10;;;;;;5087164;27;20220;-67
2023/12/17 03:17:40;;;;;;;1.93;1.83;;;19.30;44.10;;;;;;5061827;28;20229;-67
2023/12/17 03:20:06;;;;;;;2.20;2.00;;;19.30;44.10;;;;;;5063741;28;22280;-67
2023/12/17 03:22:32;;;;;;;1.70;1.60;;;19.30;44.10;;;;;;5075784;27;20236;-67
2023/12/17 03:24:58;;;;;;;2.00;1.90;;;19.30;44.10;;;;;;5085158;27;20472;-67
2023/12/17 03:27:23;;;;;;;1.80;1.70;;;19.30;44.10;;;;;;5083034;27;20224;-67
2023/12/17 03:29:50;;;;;;;1.80;1.70;;;19.30;44.10;;;;;;5083678;28;20595;-67
2023/12/17 03:32:16;;;;;;;2.17;2.07;;;19.30;44.10;;;;;;5081048;28;20224;-66
2023/12/17 03:34:41;;;;;;;1.90;1.80;;;19.30;44.10;;;;;;5087857;27;20487;-67
2023/12/17 03:37:07;;;;;;;2.90;2.07;;;19.30;44.10;;;;;;5086593;27;20231;-67
2023/12/17 03:39:32;;;;;;;1.70;1.60;;;19.30;44.10;;;;;;5078799;27;20220;-67
2023/12/17 03:41:58;;;;;;;1.70;1.60;;;19.30;44.10;;;;;;5080634;27;20273;-67
2023/12/17 03:44:23;;;;;;;1.60;1.50;;;19.30;44.10;;;;;;5062717;27;20231;-67
2023/12/17 03:46:49;;;;;;;2.20;2.10;;;19.30;44.10;;;;;;5077967;28;20628;-67
2023/12/17 03:49:14;;;;;;;1.97;1.87;;;19.30;44.10;;;;;;5083387;27;20737;-67
2023/12/17 03:51:40;;;;;;;1.60;1.50;;;19.30;44.10;;;;;;5082821;28;20319;-67
2023/12/17 03:54:06;;;;;;;1.63;1.53;;;19.30;44.10;;;;;;5078065;28;20252;-67
2023/12/17 03:56:31;;;;;;;1.60;1.50;;;19.30;44.10;;;;;;5083176;27;20435;-67
2023/12/17 03:58:57;;;;;;;1.73;1.63;;;19.30;44.10;;;;;;5082237;27;20246;-67
2023/12/17 04:01:23;;;;;;;1.90;1.80;;;19.30;44.10;;;;;;5078430;28;20238;-67
2023/12/17 04:03:48;;;;;;;2.07;1.97;;;19.20;44.00;;;;;;5082854;27;20252;-67
2023/12/17 04:06:14;;;;;;;2.30;2.03;;;19.30;44.10;;;;;;5049146;28;20217;-67
2023/12/17 04:08:39;;;;;;;2.10;2.00;;;19.20;44.00;;;;;;5062561;28;20312;-66
2023/12/17 04:11:05;;;;;;;1.80;1.70;;;19.30;44.10;;;;;;5082830;28;20331;-67
2023/12/17 04:13:31;;;;;;;1.80;1.70;;;19.30;44.10;;;;;;5077904;27;20295;-67
2023/12/17 04:15:56;;;;;;;1.90;1.80;;;19.30;44.10;;;;;;5082098;28;20307;-67
2023/12/17 04:18:22;;;;;;;2.00;1.90;;;19.30;44.10;;;;;;5084924;27;21097;-66
2023/12/17 04:20:47;;;;;;;1.87;1.77;;;19.30;44.10;;;;;;5080652;27;20307;-67
2023/12/17 04:23:14;;;;;;;2.80;2.60;;;19.30;44.10;;;;;;5076807;27;20361;-67
2023/12/17 04:25:39;;;;;;;1.50;1.40;;;19.30;44.10;;;;;;5080945;27;20212;-67
2023/12/17 04:28:05;;;;;;;1.77;1.67;;;19.30;44.10;;;;;;5082305;27;20445;-67
2023/12/17 04:30:31;;;;;;;1.63;1.53;;;19.30;44.10;;;;;;5069263;28;20242;-67
2023/12/17 04:32:56;;;;;;;2.10;1.90;;;19.30;44.10;;;;;;5082653;28;20292;-66
2023/12/17 04:35:22;;;;;;;1.73;1.63;;;19.30;44.10;;;;;;5082767;27;20299;-66
2023/12/17 04:37:47;;;;;;;2.10;2.00;;;19.30;44.10;;;;;;5082481;28;20232;-66
2023/12/17 04:40:14;;;;;;;3.10;2.90;;;19.20;44.10;;;;;;5071168;28;20220;-66
2023/12/17 04:42:40;;;;;;;1.63;1.53;;;19.30;44.10;;;;;;5082444;27;20228;-66
2023/12/17 04:45:06;;;;;;;1.60;1.50;;;19.30;44.10;;;;;;5070296;28;20454;-66
2023/12/17 04:47:31;;;;;;;1.70;1.60;;;19.30;44.10;;;;;;5072712;28;20778;-66
2023/12/17 04:49:57;;;;;;;1.67;1.57;;;19.30;43.80;;;;;;5064609;28;20502;-66
2023/12/17 04:52:23;;;;;;;1.57;1.47;;;19.30;44.10;;;;;;5061826;28;20318;-66
2023/12/17 04:54:48;;;;;;;1.70;1.60;;;19.30;44.10;;;;;;5062271;28;20285;-66
2023/12/17 04:57:14;;;;;;;2.03;1.60;;;19.30;44.10;;;;;;5061870;28;20248;-67
2023/12/17 04:59:39;;;;;;;1.50;1.40;;;19.30;44.10;;;;;;5077721;27;20684;-66
2023/12/17 05:02:06;;;;;;;1.80;1.70;;;19.30;44.10;;;;;;5081606;28;20223;-66
2023/12/17 05:04:31;;;;;;;1.60;1.50;;;19.30;44.10;;;;;;5086681;27;20330;-66
2023/12/17 05:06:57;;;;;;;1.97;1.87;;;19.30;44.10;;;;;;5083794;28;20486;-66
2023/12/17 05:09:22;;;;;;;1.70;1.60;;;19.30;44.10;;;;;;5081161;27;20282;-66
2023/12/17 05:11:49;;;;;;;1.70;1.60;;;19.40;44.20;;;;;;5069462;28;20277;-65
2023/12/17 05:14:15;;;;;;;1.50;1.40;;;19.40;44.20;;;;;;5082980;27;20233;-66
2023/12/17 05:16:41;;;;;;;1.90;1.80;;;19.30;44.10;;;;;;5082056;28;20451;-66
2023/12/17 05:19:07;;;;;;;3.17;1.73;;;19.40;44.20;;;;;;5080384;27;20464;-66
2023/12/17 05:21:33;;;;;;;1.60;1.50;;;19.40;44.10;;;;;;5083956;27;20453;-66
2023/12/17 05:23:58;;;;;;;1.83;1.73;;;19.40;44.20;;;;;;5084682;27;20225;-66
2023/12/17 05:26:24;;;;;;;1.87;1.50;;;19.40;44.20;;;;;;5073425;28;20228;-66
2023/12/17 05:28:49;;;;;;;1.67;1.57;;;19.40;44.20;;;;;;5077979;28;20215;-66
2023/12/17 05:31:15;;;;;;;1.67;1.57;;;19.40;44.20;;;;;;5077234;28;20223;-66
2023/12/17 05:33:41;;;;;;;1.63;1.53;;;19.40;44.20;;;;;;5084304;28;20234;-66
2023/12/17 05:36:07;;;;;;;1.60;1.50;;;19.40;44.20;;;;;;5082546;28;20220;-66
2023/12/17 05:38:32;;;;;;;1.67;1.57;;;19.40;44.20;;;;;;5084650;28;20461;-65
2023/12/17 05:40:58;;;;;;;1.60;1.50;;;19.40;44.20;;;;;;5085101;28;20932;-65
2023/12/17 05:43:24;;;;;;;1.83;1.73;;;19.40;44.20;;;;;;5082844;27;20229;-66
2023/12/17 05:45:50;;;;;;;1.50;1.40;;;19.40;44.20;;;;;;5074602;27;20285;-66
2023/12/17 05:48:15;;;;;;;1.83;1.73;;;19.40;44.20;;;;;;5078301;27;20232;-66
2023/12/17 05:50:42;;;;;;;1.67;1.57;;;19.40;44.20;;;;;;5082945;27;20226;-66
2023/12/17 05:53:08;;;;;;;1.50;1.40;;;19.40;44.10;;;;;;5082446;27;20230;-65
2023/12/17 05:55:33;;;;;;;1.50;1.40;;;19.40;44.20;;;;;;5078274;27;20850;-66
2023/12/17 05:57:59;;;;;;;1.70;1.60;;;19.40;44.20;;;;;;5082245;27;20240;-66
2023/12/17 06:00:24;;;;;;;1.80;1.70;;;19.40;44.20;;;;;;5077926;28;20346;-66
2023/12/17 06:02:50;;;;;;;1.70;1.60;;;19.40;44.20;;;;;;5074205;27;20240;-66
2023/12/17 06:05:16;;;;;;;1.63;1.53;;;19.40;44.20;;;;;;5082687;28;20729;-66
2023/12/17 06:07:42;;;;;;;1.50;1.40;;;19.40;44.10;;;;;;5080620;28;20216;-66
2023/12/17 06:10:08;;;;;;;1.70;1.60;;;19.40;44.20;;;;;;5081174;28;20529;-66
2023/12/17 06:12:33;;;;;;;1.70;1.60;;;19.40;44.20;;;;;;5085197;28;20216;-68
2023/12/17 06:14:59;;;;;;;1.50;1.40;;;19.40;44.20;;;;;;5088356;28;20434;-67
2023/12/17 06:18:00;;;;;;;1.63;1.53;;;19.40;44.50;;;;;;5063432;27;1201552;-68
2023/12/17 06:20:26;;;;;;;1.70;1.60;;;19.40;44.20;;;;;;5108400;27;20467;-68
2023/12/17 06:22:52;;;;;;;1.53;1.43;;;19.40;44.20;;;;;;5096803;27;20539;-68
2023/12/17 06:25:18;;;;;;;1.80;1.70;;;19.40;44.10;;;;;;5097086;27;20670;-67
2023/12/17 06:27:43;;;;;;;1.60;1.50;;;19.40;44.20;;;;;;5108654;27;20521;-69
2023/12/17 06:30:09;;;;;;;1.70;1.60;;;19.40;44.90;;;;;;5106705;27;20319;-68
2023/12/17 06:32:35;;;;;;;1.60;1.50;;;19.40;44.10;;;;;;5104415;27;20223;-68
2023/12/17 06:35:00;;;;;;;1.60;1.50;;;19.40;44.20;;;;;;5105623;27;20226;-68
2023/12/17 06:37:26;;;;;;;1.53;1.43;;;19.40;44.20;;;;;;5104372;27;20242;-67
2023/12/17 06:39:51;;;;;;;1.67;1.57;;;19.40;44.10;;;;;;5102975;27;20227;-68
2023/12/17 06:42:17;;;;;;;1.77;1.67;;;19.40;44.20;;;;;;5082905;28;20234;-68
2023/12/17 06:44:42;;;;;;;1.57;1.47;;;19.40;44.10;;;;;;5104644;27;20215;-68
2023/12/17 06:47:08;;;;;;;1.60;1.50;;;19.40;44.20;;;;;;5106428;27;20230;-67
2023/12/17 06:49:36;;;;;;;1.60;1.50;;;19.40;44.10;;;;;;5092225;27;20215;-68
2023/12/17 06:52:02;;;;;;;1.40;1.30;;;19.40;44.10;;;;;;5103370;27;20279;-67
2023/12/17 06:54:27;;;;;;;1.33;1.23;;;19.40;44.00;;;;;;5102390;27;20439;-68
2023/12/17 06:56:53;;;;;;;1.37;1.27;;;19.40;44.00;;;;;;5096266;27;22379;-68
2023/12/17 06:59:19;;;;;;;1.50;1.40;;;19.40;44.00;;;;;;5101963;27;20680;-68
2023/12/17 07:01:44;;;;;;;1.83;1.73;;;19.40;44.00;;;;;;5107576;27;20220;-68
2023/12/17 07:04:10;;;;;;;1.60;1.50;;;19.40;44.00;;;;;;5106009;27;20546;-68
2023/12/17 07:06:36;;;;;;;1.40;1.30;;;19.50;44.10;;;;;;5104654;27;20649;-68
2023/12/17 07:09:02;;;;;;;1.53;1.43;;;19.40;44.00;;;;;;5104581;27;20242;-68
2023/12/17 07:11:27;;;;;;;1.53;1.43;;;19.40;44.10;;;;;;5098350;27;21095;-68
2023/12/17 07:13:53;;;;;;;1.70;1.60;;;19.40;44.80;;;;;;5094018;27;20442;-68
2023/12/17 07:16:23;;;;;;;1.30;1.20;;;19.50;44.10;;;;;;5107697;27;20243;-68
2023/12/17 07:18:49;;;;;;;1.60;1.50;;;19.40;44.10;;;;;;5104969;27;20295;-68
2023/12/17 07:21:15;;;;;;;1.60;1.50;;;19.50;44.00;;;;;;5104336;27;20497;-68
2023/12/17 07:23:41;;;;;;;1.80;1.50;;;19.40;44.00;;;;;;5106341;27;20643;-68
2023/12/17 07:26:06;;;;;;;1.70;1.60;;;19.50;44.10;;;;;;5088640;27;20977;-68
2023/12/17 07:28:32;;;;;;;1.40;1.30;;;19.50;43.90;;;;;;5095988;27;20250;-67
2023/12/17 07:30:57;;;;;;;1.50;1.40;;;19.50;43.90;;;;;;5095525;27;20220;-68
2023/12/17 07:33:23;;;;;;;1.50;1.40;;;19.50;43.80;;;;;;5094980;28;20219;-68
2023/12/17 07:35:49;;;;;;;1.30;1.20;;;19.50;43.70;;;;;;5093830;28;20385;-68
2023/12/17 07:38:14;;;;;;;1.40;1.30;;;19.50;44.50;;;;;;5093609;27;20219;-67
2023/12/17 07:40:40;;;;;;;1.50;1.40;;;19.50;43.70;;;;;;5092752;28;20223;-67
2023/12/17 07:43:05;;;;;;;1.60;1.50;;;19.50;43.60;;;;;;5091663;27;20220;-67
2023/12/17 07:45:33;;;;;;;1.40;1.30;;;19.60;43.70;;;;;;5091076;27;20277;-71
2023/12/17 07:48:01;;;;;;;2.30;1.30;;;19.60;43.80;;;;;;5091819;27;20232;-71
2023/12/17 07:50:27;;;;;;;1.40;1.30;;;19.50;43.60;;;;;;5093199;27;20437;-69
2023/12/17 07:52:52;;;;;;;1.23;1.13;;;19.50;43.60;;;;;;5097263;28;20423;-69
2023/12/17 07:55:18;;;;;;;3.17;1.60;;;19.50;43.70;;;;;;5090717;28;20219;-68
2023/12/17 07:57:44;;;;;;;1.30;1.20;;;19.50;43.70;;;;;;5092528;28;20239;-69
2023/12/17 08:00:11;;;;;;;1.27;1.17;;;19.50;43.70;;;;;;5089353;28;20257;-68
2023/12/17 08:02:38;;;;;;;1.43;1.33;;;19.50;43.70;;;;;;5095425;28;20228;-68
2023/12/17 08:05:05;;;;;;;1.40;1.30;;;19.50;43.70;;;;;;5091189;28;20436;-68
2023/12/17 08:07:31;;;;;;;1.40;1.30;;;19.50;43.70;;;;;;5093192;28;20431;-68
2023/12/17 08:09:57;;;;;;;1.53;1.23;;;19.50;43.80;;;;;;5093803;27;20452;-68
2023/12/17 08:12:23;;;;;;;1.30;1.20;;;19.50;43.80;;;;;;5097168;28;20452;-68
2023/12/17 08:14:48;;;;;;;1.50;1.40;;;19.50;43.80;;;;;;5093354;28;20223;-69
2023/12/17 08:17:14;;;;;;;1.70;1.60;;;19.50;43.90;;;;;;5093989;28;20289;-71
2023/12/17 08:19:39;;;;;;;1.40;1.30;;;19.50;43.90;;;;;;5099767;28;20248;-69
2023/12/17 08:22:05;;;;;;;1.30;1.20;;;19.50;44.00;;;;;;5092421;28;20604;-68
2023/12/17 08:24:30;;;;;;;1.50;1.40;;;19.50;44.10;;;;;;5087398;27;20220;-69
2023/12/17 08:26:57;;;;;;;1.67;1.57;;;19.50;44.10;;;;;;5060351;28;20627;-69
2023/12/17 08:29:24;;;;;;;1.50;1.40;;;19.50;44.20;;;;;;5091814;28;20247;-69
2023/12/17 08:31:49;;;;;;;1.50;1.40;;;19.50;44.20;;;;;;5075812;28;21183;-68
2023/12/17 08:34:15;;;;;;;1.93;1.33;;;19.50;44.20;;;;;;5089011;28;20945;-68
2023/12/17 08:36:41;;;;;;;1.50;1.40;;;19.50;44.20;;;;;;5090867;27;20281;-68
2023/12/17 08:39:07;;;;;;;1.50;1.40;;;19.50;44.20;;;;;;5094977;28;20221;-68
2023/12/17 08:41:33;;;;;;;2.07;1.97;;;19.50;44.20;;;;;;5088891;27;20235;-68
2023/12/17 08:44:00;;;;;;;1.70;1.60;;;19.50;44.20;;;;;;5087874;28;20474;-69
2023/12/17 08:46:25;;;;;;;1.60;1.50;;;19.40;44.20;;;;;;5078996;27;20316;-68
2023/12/17 08:48:51;;;;;;;1.63;1.53;;;19.50;44.30;;;;;;5067669;28;20461;-69
2023/12/17 08:51:16;;;;;;;2.23;2.13;;;19.40;44.10;;;;;;5081389;28;20224;-70
2023/12/17 08:53:42;;;;;;;1.60;1.50;;;19.50;44.20;;;;;;5087843;28;20217;-71
2023/12/17 08:56:08;;;;;;;1.50;1.40;;;19.50;44.20;;;;;;5088176;27;20569;-69
2023/12/17 08:58:34;;;;;;;2.43;1.43;;;19.40;44.20;;;;;;5086493;28;20254;-69
2023/12/17 09:00:59;;;;;;;3.80;2.80;;;19.50;44.20;;;;;;5086774;28;20548;-69
2023/12/17 09:03:25;;;;;;;1.90;1.80;;;19.50;44.20;;;;;;5085614;27;20307;-69
2023/12/17 09:05:50;;;;;;;1.77;1.67;;;19.40;44.20;;;;;;5077479;28;21468;-67
2023/12/17 09:08:16;;;;;;;1.80;1.70;;;19.40;44.20;;;;;;5085776;28;20227;-66
2023/12/17 09:10:41;;;;;;;1.80;1.70;;;19.40;44.20;;;;;;5089999;28;20232;-67
2023/12/17 09:13:09;;;;;;;2.20;2.00;;;19.40;44.20;;;;;;5084345;28;20235;-67
2023/12/17 09:15:35;;;;;;;2.20;1.93;;;19.50;44.20;;;;;;5088792;28;20220;-69
2023/12/17 09:18:02;;;;;;;2.50;2.30;;;19.40;44.20;;;;;;5084952;27;21259;-70
2023/12/17 09:20:28;;;;;;;2.13;1.83;;;19.40;44.20;;;;;;5089950;27;20456;-68
2023/12/17 09:22:53;;;;;;;3.50;2.43;;;19.40;44.20;;;;;;5090378;28;22076;-67
2023/12/17 09:25:19;;;;;;;2.20;2.00;;;19.40;44.20;;;;;;5091667;28;20785;-67
2023/12/17 09:27:45;;;;;;;4.30;3.07;;;19.40;44.20;;;;;;5089932;28;20232;-67
2023/12/17 09:30:11;;;;;;;2.70;2.50;;;19.40;44.20;;;;;;5085185;28;20717;-67
2023/12/17 09:32:37;;;;;;;2.60;2.40;;;19.40;44.80;;;;;;5086581;28;20477;-67
2023/12/17 09:35:03;;;;;;;2.60;2.40;;;19.40;44.20;;;;;;5086516;28;20424;-67
2023/12/17 09:37:28;;;;;;;2.93;2.73;;;19.40;44.20;;;;;;5076408;28;20282;-67
2023/12/17 09:39:54;;;;;;;3.33;3.07;;;19.40;44.20;;;;;;5089604;28;20222;-67
2023/12/17 09:42:20;;;;;;;3.70;3.27;;;19.40;44.20;;;;;;5060673;28;20225;-67
2023/12/17 09:44:46;;;;;;;3.80;3.30;;;19.40;44.10;;;;;;5081116;28;20346;-67
2023/12/17 09:47:11;;;;;;;3.50;3.30;;;19.40;44.20;;;;;;5087575;28;20438;-67
2023/12/17 09:49:37;;;;;;;3.67;3.47;;;19.40;44.10;;;;;;5087776;28;20227;-67
2023/12/17 09:52:07;;;;;;;4.07;3.77;;;19.40;44.20;;;;;;5085809;28;20228;-67
2023/12/17 09:54:33;;;;;;;5.37;3.83;;;19.40;44.20;;;;;;5087082;28;20228;-67
2023/12/17 09:57:00;;;;;;;4.50;4.20;;;19.40;44.20;;;;;;5084326;28;21061;-68
2023/12/17 09:59:25;;;;;;;3.93;3.63;;;19.40;44.20;;;;;;5087748;28;20257;-67
2023/12/17 10:01:52;;;;;;;4.67;4.33;;;19.40;44.20;;;;;;5077480;28;21054;-67
2023/12/17 10:04:25;;;;;;;4.87;4.40;;;19.40;44.20;;;;;;5082948;28;20224;-67
2023/12/17 10:06:52;;;;;;;4.20;3.83;;;19.40;44.20;;;;;;5088325;28;20439;-68
2023/12/17 10:09:17;;;;;;;4.50;4.10;;;19.40;44.20;;;;;;5088279;28;20427;-67
2023/12/17 10:11:43;;;;;;;4.47;4.13;;;19.40;44.20;;;;;;5085807;28;21063;-67
2023/12/17 10:14:22;;;;;;;4.00;3.70;;;19.40;44.20;;;;;;5085422;28;20285;-67
2023/12/17 10:16:50;;;;;;;4.73;4.43;;;19.40;44.20;;;;;;5069121;28;20275;-68
2023/12/17 10:19:17;;;;;;;4.90;4.60;;;19.40;44.20;;;;;;5089728;28;20434;-67
2023/12/17 10:21:43;;;;;;;6.30;4.70;;;19.40;44.20;;;;;;5087563;28;20447;-69
2023/12/17 10:24:09;;;;;;;5.77;4.70;;;19.40;44.20;;;;;;5089776;28;20982;-67
2023/12/17 10:26:44;;;;;;;7.63;5.90;;;19.40;44.20;;;;;;5085000;28;20228;-70
2023/12/17 10:29:14;;;;;;;8.07;5.27;;;19.40;44.20;;;;;;5086454;28;20460;-68
2023/12/17 10:31:41;;;;;;;4.70;4.33;;;19.40;44.20;;;;;;5089652;28;20575;-67
2023/12/17 10:34:18;;;;;;;5.90;5.33;;;19.40;44.20;;;;;;5088827;28;20439;-68
2023/12/17 10:36:46;;;;;;;6.20;5.70;;;19.40;44.20;;;;;;5068043;28;20529;-69
2023/12/17 10:39:14;;;;;;;5.20;4.80;;;19.40;44.20;;;;;;5087616;28;20439;-69
2023/12/17 10:41:41;;;;;;;7.13;6.17;;;19.40;44.20;;;;;;5087876;28;20439;-68
2023/12/17 10:44:12;;;;;;;6.30;5.23;;;19.40;44.20;;;;;;5085368;28;20439;-68
2023/12/17 10:46:41;;;;;;;9.87;6.17;;;19.40;44.20;;;;;;5087076;28;20468;-68
2023/12/17 10:49:07;;;;;;;8.30;6.57;;;19.40;44.20;;;;;;5088471;28;20493;-68
2023/12/17 10:51:34;;;;;;;5.53;5.13;;;19.40;44.20;;;;;;5086184;28;20524;-68
2023/12/17 10:54:01;;;;;;;6.77;6.17;;;19.40;44.20;;;;;;5089488;28;20220;-68
2023/12/17 10:56:28;;;;;;;9.40;6.13;;;19.40;44.20;;;;;;5085310;28;20458;-69
2023/12/17 10:58:55;;;;;;;7.27;6.57;;;19.40;44.20;;;;;;5088925;28;20439;-68
2023/12/17 11:01:22;;;;;;;9.43;6.30;;;19.40;44.20;;;;;;5090698;28;20519;-68
2023/12/17 11:03:48;;;;;;;9.70;7.00;;;19.40;44.20;;;;;;5089914;28;20504;-69
2023/12/17 11:06:14;;;;;;;6.10;5.67;;;19.40;44.20;;;;;;5085975;28;20438;-68
2023/12/17 11:08:40;;;;;;;6.83;5.80;;;19.40;44.20;;;;;;5092468;28;20447;-68
2023/12/17 11:11:06;;;;;;;7.17;6.57;;;19.40;44.20;;;;;;5095823;28;20447;-68
2023/12/17 11:13:31;;;;;;;7.70;6.10;;;19.40;44.10;;;;;;5096265;28;20226;-69
2023/12/17 11:16:18;;;;;;;7.27;5.87;;;19.40;44.20;;;;;;5095053;28;20219;-69
2023/12/17 11:18:44;;;;;;;8.50;6.30;;;19.40;44.10;;;;;;5090227;28;20248;-69
2023/12/17 11:21:11;;;;;;;8.73;6.27;;;19.40;44.20;;;;;;5095161;28;20606;-68
2023/12/17 11:23:37;;;;;;;7.00;5.33;;;19.40;44.20;;;;;;5092374;28;20246;-69
2023/12/17 11:26:04;;;;;;;7.03;5.20;;;19.40;44.20;;;;;;5089173;28;21741;-68
2023/12/17 11:28:30;;;;;;;6.70;5.97;;;19.40;44.20;;;;;;5091597;28;20456;-69
2023/12/17 11:30:57;;;;;;;6.77;6.17;;;19.40;44.20;;;;;;5094654;28;20464;-68
2023/12/17 11:33:25;;;;;;;6.00;5.50;;;19.40;44.20;;;;;;5082775;28;20220;-69
2023/12/17 11:35:51;;;;;;;6.90;6.20;;;19.40;44.20;;;;;;5087375;28;20468;-68
2023/12/17 11:38:17;;;;;;;6.60;6.00;;;19.40;44.20;;;;;;5094073;28;20432;-68
2023/12/17 11:40:43;;;;;;;5.90;5.40;;;19.40;44.20;;;;;;5093923;28;20452;-68
2023/12/17 11:43:08;;;;;;;7.23;6.07;;;19.40;44.20;;;;;;5091145;27;20220;-68
2023/12/17 11:45:44;;;;;;;7.07;6.00;;;19.40;44.20;;;;;;5090189;28;20423;-67
2023/12/17 11:48:14;;;;;;;6.00;5.50;;;19.40;44.20;;;;;;5090390;27;20326;-67
2023/12/17 11:50:48;;;;;;;6.40;5.87;;;19.40;44.20;;;;;;5087714;28;20423;-68
2023/12/17 11:53:18;;;;;;;6.70;6.03;;;19.40;44.20;;;;;;5087921;28;20490;-69
2023/12/17 11:55:46;;;;;;;5.90;5.40;;;19.40;44.20;;;;;;5061241;28;21445;-67
2023/12/17 11:58:17;;;;;;;6.27;5.67;;;19.40;44.20;;;;;;5072823;28;20783;-66
2023/12/17 12:01:09;;;;;;;6.57;5.70;;;19.40;44.20;;;;;;5088790;28;20419;-67
2023/12/17 12:03:39;;;;;;;5.90;5.40;;;19.40;44.20;;;;;;5086578;28;20480;-66
2023/12/17 12:06:10;;;;;;;6.20;5.60;;;19.40;44.20;;;;;;5086553;28;20415;-66
2023/12/17 12:08:41;;;;;;;6.57;5.97;;;19.40;44.20;;;;;;5088834;27;20457;-66
2023/12/17 12:11:08;;;;;;;6.63;6.03;;;19.40;44.10;;;;;;5088692;28;20436;-66
2023/12/17 12:13:38;;;;;;;6.40;5.90;;;19.40;44.20;;;;;;5090039;28;20415;-65
2023/12/17 12:16:05;;;;;;;6.97;5.50;;;19.40;44.20;;;;;;5089039;27;22050;-65
2023/12/17 12:18:30;;;;;;;6.33;5.83;;;19.40;44.20;;;;;;5092425;28;20770;-65
2023/12/17 12:20:56;;;;;;;5.27;4.93;;;19.40;44.20;;;;;;5089218;27;20446;-66
2023/12/17 12:23:22;;;;;;;5.50;5.00;;;19.40;44.20;;;;;;5090707;28;20314;-66
2023/12/17 12:25:47;;;;;;;5.43;5.07;;;19.40;44.20;;;;;;5090073;28;20224;-66
2023/12/17 12:28:20;;;;;;;6.23;5.80;;;19.40;44.20;;;;;;5090155;27;20229;-66
2023/12/17 12:30:47;;;;;;;5.90;4.90;;;19.40;44.20;;;;;;5091305;28;20216;-65
2023/12/17 12:33:15;;;;;;;6.07;5.57;;;19.40;44.20;;;;;;5088768;28;21686;-65
2023/12/17 12:35:42;;;;;;;5.20;4.70;;;19.40;44.20;;;;;;5087559;28;20458;-65
2023/12/17 12:38:25;;;;;;;5.73;5.23;;;19.40;44.20;;;;;;5077682;28;20451;-65
2023/12/17 12:40:54;;;;;;;5.33;4.83;;;19.40;44.20;;;;;;5087981;28;20953;-65
2023/12/17 12:43:22;;;;;;;5.40;5.00;;;19.40;44.20;;;;;;5091218;28;20439;-65